Siegle, Louisiana
Current Conditions -  °F | °C
As of 1:53 AM on Saturday 20 Dec 2014 (Local Time) from KMLU Reporting Station
Overcast Overcast  
Wind Chill: 40°   Ceiling: 8000
Heat Index: 44°   Visibility: 10mi
Dew Point: 42°   Wind: 8mph
Humidity: 93%   Direction: 40°NE
Pressure: 30.2"   Gusts: NA
Location:  32.3932°N, 92.2204°W
Report Text: KMLU 200753Z AUTO 04007KT 10SM SCT049 OVC080 07/06 A3020 RMK AO2 SLP227 T00670056
Loading
Personal Weather Stations






























Interactive Weather Map New forecast layout! Learn more

10-Day Weather Forecast

Advertisements
Track Severe Weather on mobile